createdAt,value
2018-04-19T00:02:34.613Z,14.46
2018-04-19T00:17:36.356Z,14.39
2018-04-19T00:32:34.692Z,14.35
2018-04-19T00:47:36.707Z,14.31
2018-04-19T01:02:35.841Z,14.30
2018-04-19T01:17:36.602Z,14.32
2018-04-19T01:32:35.097Z,14.44
2018-04-19T01:47:35.007Z,14.53
2018-04-19T02:02:37.197Z,14.57
2018-04-19T02:17:34.955Z,14.58
2018-04-19T02:32:34.400Z,14.57
2018-04-19T02:47:35.262Z,14.58
2018-04-19T03:02:34.446Z,14.47
2018-04-19T03:17:34.242Z,14.29
2018-04-19T03:32:34.590Z,14.11
2018-04-19T03:47:34.781Z,17.64
2018-04-19T04:02:34.758Z,20.65
2018-04-19T04:17:46.544Z,21.37
2018-04-19T04:32:35.085Z,20.61
2018-04-19T04:47:35.048Z,20.77
2018-04-19T05:02:37.065Z,21.43
2018-04-19T05:17:35.533Z,22.19
2018-04-19T05:32:34.410Z,23.14
2018-04-19T05:47:36.334Z,23.83
2018-04-19T06:02:35.271Z,24.71
2018-04-19T06:17:35.260Z,25.34
2018-04-19T06:32:36.674Z,26.17
2018-04-19T06:47:34.115Z,26.61
2018-04-19T07:02:35.070Z,26.39
2018-04-19T07:17:34.592Z,27.06
2018-04-19T07:32:34.929Z,27.65
2018-04-19T07:47:34.950Z,28.35
2018-04-19T08:02:34.876Z,29.03
2018-04-19T08:17:34.873Z,29.75
2018-04-19T08:32:35.282Z,30.32
2018-04-19T08:47:35.242Z,30.80
2018-04-19T09:02:35.162Z,31.17
2018-04-19T09:17:37.159Z,31.42
2018-04-19T09:32:34.555Z,31.74
2018-04-19T09:47:36.524Z,32.07
2018-04-19T10:02:35.145Z,32.12
2018-04-19T10:17:34.479Z,32.22
2018-04-19T10:32:34.855Z,30.63
2018-04-19T10:47:36.833Z,29.35
2018-04-19T11:02:36.809Z,29.46
2018-04-19T11:17:35.823Z,29.60
2018-04-19T11:32:35.142Z,29.71
2018-04-19T11:47:35.186Z,29.63
2018-04-19T12:02:37.093Z,29.20
2018-04-19T12:17:35.046Z,28.70
2018-04-19T12:32:34.470Z,28.37
2018-04-19T12:47:34.433Z,28.06
2018-04-19T13:02:34.369Z,27.86
2018-04-19T13:17:34.130Z,27.39
2018-04-19T13:32:34.722Z,26.75
2018-04-19T13:47:37.710Z,26.37
2018-04-19T14:02:34.618Z,25.80
2018-04-19T14:17:34.670Z,25.16
2018-04-19T14:32:34.819Z,24.59
2018-04-19T14:47:34.788Z,24.34
2018-04-19T15:02:34.929Z,24.31
2018-04-19T15:17:34.696Z,23.97
2018-04-19T15:32:33.591Z,23.36
2018-04-19T15:47:35.087Z,22.90
2018-04-19T16:02:33.567Z,22.41
2018-04-19T16:17:34.978Z,22.02
2018-04-19T16:32:33.917Z,21.81
2018-04-19T16:47:34.921Z,21.67
2018-04-19T17:02:34.306Z,21.43
2018-04-19T17:17:35.309Z,21.08
2018-04-19T17:32:34.728Z,20.67
2018-04-19T17:47:34.811Z,20.23
2018-04-19T18:02:40.696Z,19.92
2018-04-19T18:32:43.108Z,19.49
2018-04-19T18:47:42.482Z,19.26
2018-04-19T19:02:35.027Z,19.00
2018-04-19T19:17:48.934Z,18.82
2018-04-19T19:32:35.141Z,18.62
2018-04-19T19:47:34.616Z,18.40
2018-04-19T20:02:34.323Z,18.19
2018-04-19T20:17:36.306Z,18.02
2018-04-19T20:32:34.665Z,17.85
2018-04-19T20:47:43.156Z,17.74
2018-04-19T21:02:33.738Z,17.64
2018-04-19T21:17:42.410Z,17.54
2018-04-19T21:32:45.171Z,17.46
2018-04-19T21:47:36.996Z,17.34
2018-04-19T22:02:35.182Z,17.25
2018-04-19T22:17:35.143Z,17.15
2018-04-19T22:32:34.538Z,17.04
2018-04-19T22:47:36.565Z,16.91
2018-04-19T23:02:34.499Z,16.83
2018-04-19T23:17:34.487Z,16.73
2018-04-19T23:32:35.327Z,16.68
2018-04-19T23:47:34.317Z,16.60
